createdAt,value
2023-01-06T00:01:21.308Z,7.52
2023-01-06T00:06:27.881Z,7.67
2023-01-06T00:11:36.022Z,7.54
2023-01-06T00:16:41.014Z,7.65
2023-01-06T00:21:46.829Z,7.30
2023-01-06T00:26:54.547Z,7.29
2023-01-06T00:32:01.837Z,7.63
2023-01-06T00:37:07.592Z,7.33
2023-01-06T00:42:15.239Z,7.23
2023-01-06T00:47:23.848Z,7.67
2023-01-06T00:52:28.934Z,7.43
2023-01-06T00:57:39.213Z,7.63
2023-01-06T01:02:44.373Z,7.61
2023-01-06T01:07:49.339Z,7.70
2023-01-06T01:12:58.510Z,7.72
2023-01-06T01:18:03.456Z,7.57
2023-01-06T01:23:08.365Z,7.63
2023-01-06T01:28:16.105Z,7.57
2023-01-06T01:33:24.014Z,7.55
2023-01-06T01:38:29.165Z,7.48
2023-01-06T01:43:50.023Z,7.47
2023-01-06T01:48:55.931Z,7.44
2023-01-06T01:54:03.680Z,7.41
2023-01-06T01:59:14.863Z,7.37
2023-01-06T02:04:20.984Z,7.20
2023-01-06T02:09:31.387Z,6.99
2023-01-06T02:14:39.151Z,6.90
2023-01-06T02:20:17.328Z,6.90
2023-01-06T02:25:48.353Z,6.96
2023-01-06T02:31:25.973Z,6.77
2023-01-06T02:36:40.824Z,6.68
2023-01-06T02:41:51.797Z,6.27
2023-01-06T02:47:14.019Z,6.49
2023-01-06T02:52:27.261Z,6.35
2023-01-06T02:57:39.733Z,6.50
2023-01-06T03:02:53.231Z,6.59
2023-01-06T03:08:00.563Z,6.49
2023-01-06T03:13:10.004Z,6.42
2023-01-06T03:18:17.726Z,6.31
2023-01-06T03:23:23.810Z,6.45
2023-01-06T03:28:28.765Z,6.41
2023-01-06T03:33:44.185Z,6.44
2023-01-06T03:38:54.561Z,6.16
2023-01-06T03:44:06.272Z,6.07
2023-01-06T03:49:22.098Z,6.15
2023-01-06T03:54:40.132Z,6.21
2023-01-06T03:59:51.149Z,6.32
2023-01-06T04:05:12.895Z,6.18
2023-01-06T04:10:22.182Z,6.17
2023-01-06T04:15:32.679Z,6.32
2023-01-06T04:20:44.055Z,6.17
2023-01-06T04:25:56.885Z,6.10
2023-01-06T04:31:12.151Z,6.13
2023-01-06T04:36:21.125Z,6.17
2023-01-06T04:41:32.112Z,6.12
2023-01-06T04:46:39.731Z,5.99
2023-01-06T04:51:47.351Z,5.95
2023-01-06T04:56:52.470Z,6.07
2023-01-06T05:01:57.416Z,6.13
2023-01-06T05:07:04.968Z,6.15
2023-01-06T05:12:10.855Z,6.35
2023-01-06T05:17:32.692Z,6.26
2023-01-06T05:22:44.143Z,6.28
2023-01-06T05:27:49.206Z,6.44
2023-01-06T05:32:56.474Z,6.45
2023-01-06T05:38:04.275Z,6.35
2023-01-06T05:43:09.314Z,6.26
2023-01-06T05:48:14.409Z,6.28
2023-01-06T05:53:22.553Z,6.23
2023-01-06T05:58:27.815Z,6.37
2023-01-06T06:03:36.642Z,6.40
2023-01-06T06:08:44.635Z,6.44
2023-01-06T06:13:50.574Z,6.43
2023-01-06T06:18:57.959Z,6.45
2023-01-06T06:24:07.191Z,6.53
2023-01-06T06:29:13.993Z,6.36
2023-01-06T06:34:19.140Z,6.59
2023-01-06T06:39:29.020Z,6.63
2023-01-06T06:44:36.544Z,6.62
2023-01-06T06:49:42.636Z,6.86
2023-01-06T06:54:52.157Z,6.83
2023-01-06T06:59:57.850Z,6.99
2023-01-06T07:05:03.445Z,7.10
2023-01-06T07:10:15.390Z,7.23
2023-01-06T07:15:22.848Z,7.28
2023-01-06T07:20:28.017Z,7.53
2023-01-06T07:25:39.848Z,7.30
2023-01-06T07:30:45.249Z,7.39
2023-01-06T07:35:50.683Z,7.39
2023-01-06T07:41:02.761Z,7.57
2023-01-06T07:46:10.336Z,7.58
2023-01-06T07:51:15.499Z,7.59
2023-01-06T07:56:23.906Z,7.56
2023-01-06T08:01:32.002Z,7.64
2023-01-06T08:06:40.383Z,7.70
2023-01-06T08:11:51.973Z,7.80
2023-01-06T08:16:57.084Z,7.88
2023-01-06T08:22:02.344Z,7.85
2023-01-06T08:27:14.638Z,8.02
2023-01-06T08:32:22.025Z,8.19
2023-01-06T08:37:29.927Z,8.41
2023-01-06T08:42:39.936Z,8.54
2023-01-06T08:47:44.946Z,8.63
2023-01-06T08:52:50.039Z,8.81
2023-01-06T08:57:57.823Z,9.13
2023-01-06T09:03:04.845Z,9.26
2023-01-06T09:08:10.175Z,9.50
2023-01-06T09:13:19.634Z,9.65
2023-01-06T09:18:24.631Z,9.71
2023-01-06T09:23:30.010Z,9.80
2023-01-06T09:28:37.697Z,9.86
2023-01-06T09:33:43.231Z,9.87
2023-01-06T09:38:50.319Z,9.79
2023-01-06T09:44:06.892Z,9.87
2023-01-06T09:49:21.133Z,9.99
2023-01-06T09:54:32.924Z,10.17
2023-01-06T09:59:49.546Z,10.22
2023-01-06T10:04:58.095Z,10.16
2023-01-06T10:10:15.716Z,10.14
2023-01-06T10:15:35.436Z,10.28
2023-01-06T10:20:57.557Z,10.39
2023-01-06T10:26:13.819Z,10.67
2023-01-06T10:31:26.818Z,10.73
2023-01-06T10:36:35.898Z,10.74
2023-01-06T10:41:54.177Z,10.79
2023-01-06T10:47:03.922Z,10.74
2023-01-06T10:52:14.018Z,10.78
2023-01-06T10:57:26.943Z,10.71
2023-01-06T11:02:36.565Z,10.71
2023-01-06T11:07:54.756Z,10.76
2023-01-06T11:13:03.246Z,10.69
2023-01-06T11:18:23.224Z,10.78
2023-01-06T11:23:29.477Z,10.73
2023-01-06T11:28:34.940Z,10.71
2023-01-06T11:33:54.286Z,10.86
2023-01-06T11:39:02.506Z,10.91
2023-01-06T11:44:12.619Z,10.86
2023-01-06T11:49:28.591Z,10.91
2023-01-06T11:54:37.261Z,10.79
2023-01-06T11:59:57.183Z,10.74
2023-01-06T12:05:08.048Z,10.60
2023-01-06T12:10:19.087Z,10.42
2023-01-06T12:15:28.187Z,10.37
2023-01-06T12:20:38.684Z,10.12
2023-01-06T12:25:48.271Z,9.97
2023-01-06T12:31:04.331Z,9.99
2023-01-06T12:36:22.133Z,9.88
2023-01-06T12:41:32.917Z,9.91
2023-01-06T12:46:45.763Z,9.93
2023-01-06T12:51:58.129Z,9.92
2023-01-06T12:57:12.851Z,10.05
2023-01-06T13:02:33.487Z,10.02
2023-01-06T13:07:50.316Z,10.10
2023-01-06T13:13:27.965Z,9.98
2023-01-06T13:18:42.419Z,10.04
2023-01-06T13:24:23.861Z,10.19
2023-01-06T13:29:43.063Z,10.22
2023-01-06T13:35:21.913Z,10.30
2023-01-06T13:40:32.419Z,10.21
2023-01-06T13:45:44.624Z,10.36
2023-01-06T13:50:51.952Z,10.38
2023-01-06T13:56:31.884Z,10.42
2023-01-06T14:01:37.290Z,10.46
2023-01-06T14:06:49.453Z,10.42
2023-01-06T14:11:57.833Z,10.48
2023-01-06T14:17:04.966Z,10.36
2023-01-06T14:22:18.303Z,10.37
2023-01-06T14:27:53.505Z,10.32
2023-01-06T14:33:36.629Z,10.26
2023-01-06T14:38:47.238Z,10.23
2023-01-06T14:44:01.417Z,10.35
2023-01-06T14:49:19.626Z,10.37
2023-01-06T14:54:29.688Z,10.32
2023-01-06T14:59:35.073Z,10.29
2023-01-06T15:04:43.085Z,10.25
2023-01-06T15:09:48.643Z,10.23
2023-01-06T15:14:53.766Z,10.18
2023-01-06T15:20:01.393Z,10.24
2023-01-06T15:25:06.532Z,10.15
2023-01-06T15:30:23.659Z,10.13
2023-01-06T15:35:34.681Z,10.02
2023-01-06T15:40:42.159Z,10.01
2023-01-06T15:45:58.679Z,9.99
2023-01-06T15:51:13.676Z,9.97
2023-01-06T15:56:25.487Z,9.98
2023-01-06T16:01:33.641Z,10.10
2023-01-06T16:06:41.500Z,10.01
2023-01-06T16:12:05.359Z,10.14
2023-01-06T16:17:13.914Z,10.17
2023-01-06T16:22:35.259Z,10.14
2023-01-06T16:27:44.547Z,10.14
2023-01-06T16:32:50.506Z,10.18
2023-01-06T16:37:58.270Z,10.24
2023-01-06T16:43:05.489Z,10.19
2023-01-06T16:48:10.418Z,10.13
2023-01-06T16:53:21.343Z,10.08
2023-01-06T16:58:28.158Z,10.09
2023-01-06T17:03:38.113Z,10.05
2023-01-06T17:08:46.399Z,10.13
2023-01-06T17:13:56.239Z,9.94
2023-01-06T17:19:04.707Z,10.00
2023-01-06T17:24:17.422Z,10.09
2023-01-06T17:29:26.306Z,9.92
2023-01-06T17:34:34.643Z,9.82
2023-01-06T17:39:44.684Z,9.72
2023-01-06T17:44:54.445Z,9.70
2023-01-06T17:50:02.521Z,9.70
2023-01-06T17:55:48.615Z,9.72
2023-01-06T18:00:53.672Z,9.74
2023-01-06T18:06:26.232Z,9.69
2023-01-06T18:11:37.107Z,9.61
2023-01-06T18:16:43.095Z,9.64
2023-01-06T18:21:54.791Z,9.50
2023-01-06T18:27:04.344Z,9.55
2023-01-06T18:32:26.152Z,9.53
2023-01-06T18:37:33.245Z,9.61
2023-01-06T18:42:44.815Z,9.56
2023-01-06T18:47:57.002Z,9.54
2023-01-06T18:53:07.066Z,9.54
2023-01-06T18:58:49.886Z,9.47
2023-01-06T19:04:07.235Z,9.46
2023-01-06T19:09:20.466Z,9.51
2023-01-06T19:14:28.109Z,9.54
2023-01-06T19:19:43.117Z,9.47
2023-01-06T19:25:03.991Z,9.38
2023-01-06T19:30:42.999Z,9.39
2023-01-06T19:35:52.108Z,9.60
2023-01-06T19:40:58.295Z,9.51
2023-01-06T19:46:08.364Z,9.49
2023-01-06T19:51:28.249Z,9.38
2023-01-06T19:56:39.023Z,9.45
2023-01-06T20:01:45.022Z,9.15
2023-01-06T20:06:54.337Z,9.14
2023-01-06T20:12:01.518Z,9.02
2023-01-06T20:17:06.668Z,9.00
2023-01-06T20:22:16.737Z,9.07
2023-01-06T20:27:22.194Z,9.12
2023-01-06T20:32:29.975Z,9.17
2023-01-06T20:37:39.763Z,9.09
2023-01-06T20:42:46.942Z,9.02
2023-01-06T20:47:52.250Z,8.85
2023-01-06T20:53:01.841Z,8.91
2023-01-06T20:58:09.079Z,8.85
2023-01-06T21:03:14.422Z,8.90
2023-01-06T21:08:22.045Z,8.89
2023-01-06T21:13:27.343Z,8.67
2023-01-06T21:18:34.078Z,8.82
2023-01-06T21:23:42.399Z,8.76
2023-01-06T21:28:47.371Z,8.75
2023-01-06T21:33:52.829Z,8.74
2023-01-06T21:39:03.234Z,8.54
2023-01-06T21:44:08.349Z,8.61
2023-01-06T21:49:14.523Z,8.59
2023-01-06T21:54:24.348Z,8.59
2023-01-06T21:59:29.460Z,8.67
2023-01-06T22:04:34.868Z,8.65
2023-01-06T22:09:45.755Z,8.70
2023-01-06T22:14:53.264Z,8.72
2023-01-06T22:20:00.862Z,8.63
2023-01-06T22:25:09.972Z,8.66
2023-01-06T22:30:15.811Z,8.72
2023-01-06T22:35:21.669Z,8.81
2023-01-06T22:40:29.318Z,8.85
2023-01-06T22:45:34.703Z,8.94
2023-01-06T22:50:41.023Z,8.85
2023-01-06T22:55:48.620Z,8.91
2023-01-06T23:00:53.592Z,8.98
2023-01-06T23:06:00.036Z,8.94
2023-01-06T23:11:11.955Z,8.99
2023-01-06T23:16:19.223Z,8.92
2023-01-06T23:21:27.562Z,9.03
2023-01-06T23:26:36.502Z,8.94
2023-01-06T23:31:43.975Z,8.89
2023-01-06T23:36:50.480Z,8.91
2023-01-06T23:41:58.303Z,8.79
2023-01-06T23:47:06.035Z,8.96
2023-01-06T23:52:12.199Z,8.82
2023-01-06T23:57:19.817Z,8.84
